sensor_id;sensor_type;location;lat;lon;timestamp;pressure;altitude;pressure_sealevel;temperature;humidity
69221;BME280;56331;51.992;20.910;2023-01-27T00:00:26;100537.14;;;21.64;33.02
69221;BME280;56331;51.992;20.910;2023-01-27T00:02:55;100541.53;;;21.65;33.08
69221;BME280;56331;51.992;20.910;2023-01-27T00:05:21;100529.63;;;21.65;32.99
69221;BME280;56331;51.992;20.910;2023-01-27T00:07:48;100530.77;;;21.63;32.99
69221;BME280;56331;51.992;20.910;2023-01-27T00:10:17;100531.59;;;21.64;33.00
69221;BME280;56331;51.992;20.910;2023-01-27T00:12:46;100531.34;;;21.63;33.00
69221;BME280;56331;51.992;20.910;2023-01-27T00:15:33;100528.56;;;21.63;33.01
69221;BME280;56331;51.992;20.910;2023-01-27T00:18:00;100532.15;;;21.63;32.94
69221;BME280;56331;51.992;20.910;2023-01-27T00:20:29;100536.88;;;21.63;32.97
69221;BME280;56331;51.992;20.910;2023-01-27T00:23:19;100538.85;;;21.62;32.93
69221;BME280;56331;51.992;20.910;2023-01-27T00:26:07;100533.88;;;21.62;32.91
69221;BME280;56331;51.992;20.910;2023-01-27T00:28:34;100542.78;;;21.61;32.89
69221;BME280;56331;51.992;20.910;2023-01-27T00:31:01;100541.48;;;21.59;32.89
69221;BME280;56331;51.992;20.910;2023-01-27T00:33:28;100547.03;;;21.59;32.95
69221;BME280;56331;51.992;20.910;2023-01-27T00:36:04;100544.27;;;21.59;32.91
69221;BME280;56331;51.992;20.910;2023-01-27T00:38:33;100544.48;;;21.60;32.92
69221;BME280;56331;51.992;20.910;2023-01-27T00:41:03;100553.39;;;21.59;32.90
69221;BME280;56331;51.992;20.910;2023-01-27T00:43:46;100551.19;;;21.59;32.89
69221;BME280;56331;51.992;20.910;2023-01-27T00:46:13;100542.04;;;21.58;32.85
69221;BME280;56331;51.992;20.910;2023-01-27T00:51:02;100547.98;;;21.63;32.83
69221;BME280;56331;51.992;20.910;2023-01-27T00:53:30;100544.36;;;21.56;32.85
69221;BME280;56331;51.992;20.910;2023-01-27T00:55:57;100547.94;;;21.57;32.83
69221;BME280;56331;51.992;20.910;2023-01-27T00:58:27;100550.13;;;21.57;32.81
69221;BME280;56331;51.992;20.910;2023-01-27T01:00:56;100552.67;;;21.56;32.79
69221;BME280;56331;51.992;20.910;2023-01-27T01:03:25;100544.91;;;21.56;32.80
69221;BME280;56331;51.992;20.910;2023-01-27T01:05:52;100555.45;;;21.56;32.80
69221;BME280;56331;51.992;20.910;2023-01-27T01:08:19;100556.83;;;21.56;32.85
69221;BME280;56331;51.992;20.910;2023-01-27T01:10:45;100556.25;;;21.57;32.80
69221;BME280;56331;51.992;20.910;2023-01-27T01:13:12;100559.34;;;21.55;32.80
69221;BME280;56331;51.992;20.910;2023-01-27T01:15:38;100553.22;;;21.56;32.80
69221;BME280;56331;51.992;20.910;2023-01-27T01:18:06;100560.15;;;21.56;32.75
69221;BME280;56331;51.992;20.910;2023-01-27T01:20:42;100554.38;;;21.55;32.70
69221;BME280;56331;51.992;20.910;2023-01-27T01:23:14;100558.54;;;21.55;32.78
69221;BME280;56331;51.992;20.910;2023-01-27T01:25:41;100561.63;;;21.53;32.73
69221;BME280;56331;51.992;20.910;2023-01-27T01:28:08;100559.70;;;21.54;32.72
69221;BME280;56331;51.992;20.910;2023-01-27T01:30:36;100564.41;;;21.53;32.74
69221;BME280;56331;51.992;20.910;2023-01-27T01:33:03;100558.05;;;21.53;32.87
69221;BME280;56331;51.992;20.910;2023-01-27T01:35:30;100558.63;;;21.52;32.85
69221;BME280;56331;51.992;20.910;2023-01-27T01:37:56;100553.09;;;21.52;32.75
69221;BME280;56331;51.992;20.910;2023-01-27T01:40:23;100552.28;;;21.52;32.67
69221;BME280;56331;51.992;20.910;2023-01-27T01:42:58;100554.25;;;21.51;32.67
69221;BME280;56331;51.992;20.910;2023-01-27T01:48:10;100557.83;;;21.52;32.64
69221;BME280;56331;51.992;20.910;2023-01-27T01:50:35;100552.60;;;21.50;32.73
69221;BME280;56331;51.992;20.910;2023-01-27T01:53:03;100556.76;;;21.50;32.74
69221;BME280;56331;51.992;20.910;2023-01-27T01:55:33;100548.80;;;21.49;32.69
69221;BME280;56331;51.992;20.910;2023-01-27T01:58:00;100547.41;;;21.49;32.72
69221;BME280;56331;51.992;20.910;2023-01-27T02:00:30;100544.06;;;21.49;32.60
69221;BME280;56331;51.992;20.910;2023-01-27T02:02:58;100539.67;;;21.48;32.72
69221;BME280;56331;51.992;20.910;2023-01-27T02:05:28;100541.06;;;21.48;32.68
69221;BME280;56331;51.992;20.910;2023-01-27T02:08:11;100547.16;;;21.48;32.63
69221;BME280;56331;51.992;20.910;2023-01-27T02:10:28;100543.83;;;21.48;32.62
69221;BME280;56331;51.992;20.910;2023-01-27T02:12:55;100542.19;;;21.47;32.61
69221;BME280;56331;51.992;20.910;2023-01-27T02:15:21;100542.45;;;21.48;32.68
69221;BME280;56331;51.992;20.910;2023-01-27T02:17:48;100540.80;;;21.47;32.56
69221;BME280;56331;51.992;20.910;2023-01-27T02:28:27;100546.12;;;21.46;32.71
69221;BME280;56331;51.992;20.910;2023-01-27T02:30:54;100538.37;;;21.46;32.63
69221;BME280;56331;51.992;20.910;2023-01-27T02:33:30;100542.54;;;21.46;32.67
69221;BME280;56331;51.992;20.910;2023-01-27T02:36:14;100541.70;;;21.45;32.56
69221;BME280;56331;51.992;20.910;2023-01-27T02:38:47;100541.47;;;21.44;32.63
69221;BME280;56331;51.992;20.910;2023-01-27T02:41:27;100545.05;;;21.45;32.60
69221;BME280;56331;51.992;20.910;2023-01-27T02:43:53;100544.82;;;21.44;32.70
69221;BME280;56331;51.992;20.910;2023-01-27T02:46:19;100544.02;;;21.43;32.65
69221;BME280;56331;51.992;20.910;2023-01-27T02:48:46;100543.44;;;21.44;32.63
69221;BME280;56331;51.992;20.910;2023-01-27T02:51:12;100545.95;;;21.43;32.55
69221;BME280;56331;51.992;20.910;2023-01-27T02:53:39;100551.75;;;21.44;32.61
69221;BME280;56331;51.992;20.910;2023-01-27T02:56:06;100550.11;;;21.43;32.62
69221;BME280;56331;51.992;20.910;2023-01-27T02:58:32;100545.95;;;21.43;32.56
69221;BME280;56331;51.992;20.910;2023-01-27T03:00:59;100546.79;;;21.43;32.55
69221;BME280;56331;51.992;20.910;2023-01-27T03:03:27;100551.75;;;21.44;32.61
69221;BME280;56331;51.992;20.910;2023-01-27T03:05:54;100548.98;;;21.44;32.37
69221;BME280;56331;51.992;20.910;2023-01-27T03:08:20;100560.30;;;21.45;32.20
69221;BME280;56331;51.992;20.910;2023-01-27T03:10:51;100551.41;;;21.45;32.08
69221;BME280;56331;51.992;20.910;2023-01-27T03:13:22;100555.56;;;21.45;31.94
69221;BME280;56331;51.992;20.910;2023-01-27T03:15:49;100555.23;;;21.47;31.83
69221;BME280;56331;51.992;20.910;2023-01-27T03:18:34;100559.63;;;21.48;31.73
69221;BME280;56331;51.992;20.910;2023-01-27T03:21:04;100550.27;;;21.46;31.62
69221;BME280;56331;51.992;20.910;2023-01-27T03:23:31;100554.66;;;21.47;31.51
69221;BME280;56331;51.992;20.910;2023-01-27T03:26:01;100552.47;;;21.47;31.41
69221;BME280;56331;51.992;20.910;2023-01-27T03:28:29;100551.08;;;21.47;31.36
69221;BME280;56331;51.992;20.910;2023-01-27T03:31:10;100554.66;;;21.47;31.22
69221;BME280;56331;51.992;20.910;2023-01-27T03:33:41;100554.66;;;21.47;31.15
69221;BME280;56331;51.992;20.910;2023-01-27T03:36:08;100553.85;;;21.47;31.04
69221;BME280;56331;51.992;20.910;2023-01-27T03:38:53;100549.47;;;21.46;31.01
69221;BME280;56331;51.992;20.910;2023-01-27T03:41:38;100554.17;;;21.45;30.92
69221;BME280;56331;51.992;20.910;2023-01-27T03:44:23;100560.55;;;21.46;30.88
69221;BME280;56331;51.992;20.910;2023-01-27T03:47:08;100561.94;;;21.46;30.78
69221;BME280;56331;51.992;20.910;2023-01-27T03:49:35;100564.71;;;21.46;30.70
69221;BME280;56331;51.992;20.910;2023-01-27T03:52:01;100563.33;;;21.46;30.68
69221;BME280;56331;51.992;20.910;2023-01-27T03:54:28;100563.06;;;21.45;30.58
69221;BME280;56331;51.992;20.910;2023-01-27T03:56:54;100558.69;;;21.44;30.49
69221;BME280;56331;51.992;20.910;2023-01-27T03:59:22;100560.30;;;21.45;30.51
69221;BME280;56331;51.992;20.910;2023-01-27T04:01:49;100557.30;;;21.44;30.37
69221;BME280;56331;51.992;20.910;2023-01-27T04:04:15;100555.10;;;21.43;30.44
69221;BME280;56331;51.992;20.910;2023-01-27T04:07:00;100554.27;;;21.43;30.63
69221;BME280;56331;51.992;20.910;2023-01-27T04:09:30;100556.58;;;21.40;30.71
69221;BME280;56331;51.992;20.910;2023-01-27T04:11:58;100556.09;;;21.38;30.73
69221;BME280;56331;51.992;20.910;2023-01-27T04:14:33;100559.45;;;21.38;30.75
69221;BME280;56331;51.992;20.910;2023-01-27T04:17:03;100555.80;;;21.37;30.78
69221;BME280;56331;51.992;20.910;2023-01-27T04:19:30;100555.80;;;21.37;30.80
69221;BME280;56331;51.992;20.910;2023-01-27T04:21:58;100560.31;;;21.36;30.80
69221;BME280;56331;51.992;20.910;2023-01-27T04:24:25;100562.50;;;21.36;30.89
69221;BME280;56331;51.992;20.910;2023-01-27T04:26:56;100564.47;;;21.36;30.93
69221;BME280;56331;51.992;20.910;2023-01-27T04:29:29;100561.44;;;21.35;30.94
69221;BME280;56331;51.992;20.910;2023-01-27T04:31:56;100559.50;;;21.35;31.01
69221;BME280;56331;51.992;20.910;2023-01-27T04:34:24;100562.27;;;21.35;31.03
69221;BME280;56331;51.992;20.910;2023-01-27T04:36:51;100568.05;;;21.36;31.09
69221;BME280;56331;51.992;20.910;2023-01-27T04:39:18;100576.13;;;21.35;31.08
69221;BME280;56331;51.992;20.910;2023-01-27T04:42:00;100569.20;;;21.35;31.07
69221;BME280;56331;51.992;20.910;2023-01-27T04:44:27;100577.17;;;21.37;31.16
69221;BME280;56331;51.992;20.910;2023-01-27T04:46:53;100577.75;;;21.36;31.13
69221;BME280;56331;51.992;20.910;2023-01-27T04:49:20;100581.33;;;21.37;31.18
69221;BME280;56331;51.992;20.910;2023-01-27T04:51:46;100587.67;;;21.37;31.24
69221;BME280;56331;51.992;20.910;2023-01-27T04:54:13;100589.06;;;21.37;31.24
69221;BME280;56331;51.992;20.910;2023-01-27T04:57:02;100583.87;;;21.36;31.28
69221;BME280;56331;51.992;20.910;2023-01-27T04:59:12;100590.22;;;21.36;31.29
69221;BME280;56331;51.992;20.910;2023-01-27T05:01:39;100593.22;;;21.37;31.28
69221;BME280;56331;51.992;20.910;2023-01-27T05:04:06;100587.45;;;21.36;31.31
69221;BME280;56331;51.992;20.910;2023-01-27T05:06:32;100590.22;;;21.36;31.32
69221;BME280;56331;51.992;20.910;2023-01-27T05:08:59;100594.60;;;21.37;31.39
69221;BME280;56331;51.992;20.910;2023-01-27T05:11:26;100597.72;;;21.36;31.36
69221;BME280;56331;51.992;20.910;2023-01-27T05:13:52;100600.72;;;21.37;31.41
69221;BME280;56331;51.992;20.910;2023-01-27T05:16:21;100602.69;;;21.36;31.42
69221;BME280;56331;51.992;20.910;2023-01-27T05:18:50;100610.42;;;21.37;31.42
69221;BME280;56331;51.992;20.910;2023-01-27T05:21:29;100603.84;;;21.35;31.39
69221;BME280;56331;51.992;20.910;2023-01-27T05:23:56;100604.65;;;21.36;31.46
69221;BME280;56331;51.992;20.910;2023-01-27T05:26:25;100611.00;;;21.36;31.44
69221;BME280;56331;51.992;20.910;2023-01-27T05:28:54;100611.00;;;21.36;31.51
69221;BME280;56331;51.992;20.910;2023-01-27T05:31:24;100606.27;;;21.37;31.49
69221;BME280;56331;51.992;20.910;2023-01-27T05:33:54;100611.00;;;21.36;31.49
69221;BME280;56331;51.992;20.910;2023-01-27T05:36:22;100608.23;;;21.36;31.52
69221;BME280;56331;51.992;20.910;2023-01-27T05:38:49;100618.73;;;21.37;31.53
69221;BME280;56331;51.992;20.910;2023-01-27T05:41:18;100614.35;;;21.36;31.56
69221;BME280;56331;51.992;20.910;2023-01-27T05:43:46;100619.89;;;21.36;31.59
69221;BME280;56331;51.992;20.910;2023-01-27T05:46:15;100617.93;;;21.36;31.66
69221;BME280;56331;51.992;20.910;2023-01-27T05:48:44;100621.28;;;21.36;31.67
69221;BME280;56331;51.992;20.910;2023-01-27T05:51:12;100621.02;;;21.35;31.67
69221;BME280;56331;51.992;20.910;2023-01-27T05:53:39;100618.59;;;21.33;31.62
69221;BME280;56331;51.992;20.910;2023-01-27T05:56:08;100621.69;;;21.32;31.68
69221;BME280;56331;51.992;20.910;2023-01-27T05:58:36;100622.49;;;21.32;31.79
69221;BME280;56331;51.992;20.910;2023-01-27T06:03:44;100625.84;;;21.32;31.79
69221;BME280;56331;51.992;20.910;2023-01-27T06:06:13;100624.45;;;21.32;31.49
69221;BME280;56331;51.992;20.910;2023-01-27T06:08:40;100625.61;;;21.31;31.29
69221;BME280;56331;51.992;20.910;2023-01-27T06:11:07;100620.30;;;21.32;31.23
69221;BME280;56331;51.992;20.910;2023-01-27T06:13:34;100623.65;;;21.31;31.20
69221;BME280;56331;51.992;20.910;2023-01-27T06:16:02;100633.03;;;21.33;31.10
69221;BME280;56331;51.992;20.910;2023-01-27T06:18:29;100632.77;;;21.32;31.18
69221;BME280;56331;51.992;20.910;2023-01-27T06:21:00;100636.12;;;21.31;31.34
69221;BME280;56331;51.992;20.910;2023-01-27T06:23:28;100634.97;;;21.32;31.50
69221;BME280;56331;51.992;20.910;2023-01-27T06:25:55;100645.50;;;21.33;31.56
69221;BME280;56331;51.992;20.910;2023-01-27T06:28:23;100645.23;;;21.32;31.75
69221;BME280;56331;51.992;20.910;2023-01-27T06:30:50;100645.23;;;21.32;31.70
69221;BME280;56331;51.992;20.910;2023-01-27T06:33:18;100647.20;;;21.31;31.74
69221;BME280;56331;51.992;20.910;2023-01-27T06:35:44;100652.97;;;21.32;31.83
69221;BME280;56331;51.992;20.910;2023-01-27T06:38:11;100654.94;;;21.32;31.99
69221;BME280;56331;51.992;20.910;2023-01-27T06:40:40;100653.33;;;21.31;32.26
69221;BME280;56331;51.992;20.910;2023-01-27T06:43:12;100654.70;;;21.31;32.37
69221;BME280;56331;51.992;20.910;2023-01-27T06:45:39;100659.09;;;21.32;32.39
69221;BME280;56331;51.992;20.910;2023-01-27T06:48:06;100659.67;;;21.31;32.35
69221;BME280;56331;51.992;20.910;2023-01-27T06:50:33;100659.67;;;21.31;32.39
69221;BME280;56331;51.992;20.910;2023-01-27T06:53:01;100667.17;;;21.31;32.35
69221;BME280;56331;51.992;20.910;2023-01-27T06:55:28;100666.02;;;21.32;32.39
69221;BME280;56331;51.992;20.910;2023-01-27T06:57:55;100669.95;;;21.31;32.37
69221;BME280;56331;51.992;20.910;2023-01-27T07:00:22;100678.84;;;21.30;32.41
69221;BME280;56331;51.992;20.910;2023-01-27T07:02:48;100678.84;;;21.30;32.60
69221;BME280;56331;51.992;20.910;2023-01-27T07:05:16;100675.00;;;21.29;32.62
69221;BME280;56331;51.992;20.910;2023-01-27T07:07:42;100676.30;;;21.31;32.56
69221;BME280;56331;51.992;20.910;2023-01-27T07:10:09;100683.00;;;21.30;32.47
69221;BME280;56331;51.992;20.910;2023-01-27T07:12:36;100683.80;;;21.31;32.35
69221;BME280;56331;51.992;20.910;2023-01-27T07:15:07;100686.58;;;21.31;32.37
69221;BME280;56331;51.992;20.910;2023-01-27T07:17:34;100685.19;;;21.31;32.40
69221;BME280;56331;51.992;20.910;2023-01-27T07:20:02;100679.65;;;21.31;32.32
69221;BME280;56331;51.992;20.910;2023-01-27T07:22:29;100677.45;;;21.30;32.28
69221;BME280;56331;51.992;20.910;2023-01-27T07:24:56;100682.73;;;21.29;32.25
69221;BME280;56331;51.992;20.910;2023-01-27T07:27:23;100685.77;;;21.30;32.26
69221;BME280;56331;51.992;20.910;2023-01-27T07:29:50;100683.00;;;21.30;32.20
69221;BME280;56331;51.992;20.910;2023-01-27T07:32:17;100684.92;;;21.30;32.20
69221;BME280;56331;51.992;20.910;2023-01-27T07:34:43;100683.55;;;21.30;32.29
69221;BME280;56331;51.992;20.910;2023-01-27T07:37:10;100683.80;;;21.31;32.30
69221;BME280;56331;51.992;20.910;2023-01-27T07:39:37;100692.70;;;21.30;32.41
69221;BME280;56331;51.992;20.910;2023-01-27T07:42:04;100682.73;;;21.29;32.40
69221;BME280;56331;51.992;20.910;2023-01-27T07:44:32;100679.97;;;21.29;32.38
69221;BME280;56331;51.992;20.910;2023-01-27T07:46:58;100686.31;;;21.30;32.34
69221;BME280;56331;51.992;20.910;2023-01-27T07:49:28;100689.92;;;21.30;33.14
69221;BME280;56331;51.992;20.910;2023-01-27T07:51:54;100686.89;;;21.29;33.95
69221;BME280;56331;51.992;20.910;2023-01-27T07:54:21;100678.84;;;21.30;34.45
69221;BME280;56331;51.992;20.910;2023-01-27T07:56:48;100686.23;;;21.32;34.49
69221;BME280;56331;51.992;20.910;2023-01-27T07:59:14;100685.91;;;21.34;34.48
69221;BME280;56331;51.992;20.910;2023-01-27T08:01:41;100684.20;;;21.35;34.34
69221;BME280;56331;51.992;20.910;2023-01-27T08:04:08;100685.54;;;21.38;34.22
69221;BME280;56331;51.992;20.910;2023-01-27T08:06:37;100683.49;;;21.41;34.02
69221;BME280;56331;51.992;20.910;2023-01-27T08:09:04;100684.79;;;21.44;33.97
69221;BME280;56331;51.992;20.910;2023-01-27T08:11:31;100686.66;;;21.46;34.03
69221;BME280;56331;51.992;20.910;2023-01-27T08:13:57;100688.19;;;21.49;34.04
69221;BME280;56331;51.992;20.910;2023-01-27T08:16:24;100693.42;;;21.51;34.03
69221;BME280;56331;51.992;20.910;2023-01-27T08:18:51;100701.39;;;21.52;33.98
69221;BME280;56331;51.992;20.910;2023-01-27T08:21:19;100699.34;;;21.55;33.90
69221;BME280;56331;51.992;20.910;2023-01-27T08:23:45;100696.25;;;21.57;33.78
69221;BME280;56331;51.992;20.910;2023-01-27T08:26:12;100702.02;;;21.58;33.71
69221;BME280;56331;51.992;20.910;2023-01-27T08:28:39;100699.16;;;21.60;33.63
69221;BME280;56331;51.992;20.910;2023-01-27T08:31:09;100698.03;;;21.61;33.56
69221;BME280;56331;51.992;20.910;2023-01-27T08:33:36;100702.11;;;21.64;33.69
69221;BME280;56331;51.992;20.910;2023-01-27T08:36:05;100699.56;;;21.65;33.94
69221;BME280;56331;51.992;20.910;2023-01-27T08:38:32;100701.44;;;21.67;34.06
69221;BME280;56331;51.992;20.910;2023-01-27T08:41:05;100698.09;;;21.68;34.19
69221;BME280;56331;51.992;20.910;2023-01-27T08:43:32;100701.92;;;21.69;34.27
69221;BME280;56331;51.992;20.910;2023-01-27T08:45:59;100702.16;;;21.70;34.43
69221;BME280;56331;51.992;20.910;2023-01-27T08:48:30;100703.68;;;21.74;34.56
69221;BME280;56331;51.992;20.910;2023-01-27T08:50:57;100701.17;;;21.75;34.73
69221;BME280;56331;51.992;20.910;2023-01-27T08:53:25;100702.78;;;21.76;34.79
69221;BME280;56331;51.992;20.910;2023-01-27T08:56:01;100705.23;;;21.77;34.86
69221;BME280;56331;51.992;20.910;2023-01-27T08:58:23;100711.82;;;21.79;34.98
69221;BME280;56331;51.992;20.910;2023-01-27T09:00:50;100708.37;;;21.82;35.02
69221;BME280;56331;51.992;20.910;2023-01-27T09:03:16;100706.44;;;21.82;35.12
69221;BME280;56331;51.992;20.910;2023-01-27T09:05:43;100722.16;;;21.84;35.11
69221;BME280;56331;51.992;20.910;2023-01-27T09:08:09;100719.64;;;21.85;35.17
69221;BME280;56331;51.992;20.910;2023-01-27T09:10:38;100714.81;;;21.89;35.22
69221;BME280;56331;51.992;20.910;2023-01-27T09:13:06;100720.59;;;21.90;35.34
69221;BME280;56331;51.992;20.910;2023-01-27T09:15:35;100721.66;;;21.91;35.33
69221;BME280;56331;51.992;20.910;2023-01-27T09:18:02;100728.81;;;21.92;35.33
69221;BME280;56331;51.992;20.910;2023-01-27T09:20:28;100734.86;;;21.94;35.28
69221;BME280;56331;51.992;20.910;2023-01-27T09:22:58;100729.30;;;21.94;35.19
69221;BME280;56331;51.992;20.910;2023-01-27T09:25:26;100726.53;;;21.94;35.12
69221;BME280;56331;51.992;20.910;2023-01-27T09:27:53;100721.34;;;21.93;34.93
69221;BME280;56331;51.992;20.910;2023-01-27T09:30:21;100720.76;;;21.93;34.81
69221;BME280;56331;51.992;20.910;2023-01-27T09:32:48;100723.18;;;21.95;34.75
69221;BME280;56331;51.992;20.910;2023-01-27T09:35:15;100724.34;;;21.94;34.60
69221;BME280;56331;51.992;20.910;2023-01-27T09:37:53;100720.76;;;21.93;34.32
69221;BME280;56331;51.992;20.910;2023-01-27T09:45:35;100718.70;;;21.96;33.64
69221;BME280;56331;51.992;20.910;2023-01-27T09:51:07;100714.22;;;21.98;33.28
69221;BME280;56331;51.992;20.910;2023-01-27T10:02:07;100723.26;;;22.01;32.41
69221;BME280;56331;51.992;20.910;2023-01-27T10:04:46;100722.91;;;22.02;32.21
69221;BME280;56331;51.992;20.910;2023-01-27T10:24:14;100724.46;;;22.06;33.83
69221;BME280;56331;51.992;20.910;2023-01-27T10:26:40;100712.20;;;22.07;33.83
69221;BME280;56331;51.992;20.910;2023-01-27T10:29:17;100725.41;;;22.10;33.99
69221;BME280;56331;51.992;20.910;2023-01-27T10:34:36;100719.77;;;22.13;34.14
69221;BME280;56331;51.992;20.910;2023-01-27T10:39:50;100723.02;;;22.15;34.32
69221;BME280;56331;51.992;20.910;2023-01-27T10:42:39;100717.70;;;22.16;34.38
69221;BME280;56331;51.992;20.910;2023-01-27T10:45:26;100718.19;;;22.18;34.47
69221;BME280;56331;51.992;20.910;2023-01-27T10:47:58;100718.48;;;22.19;34.50
69221;BME280;56331;51.992;20.910;2023-01-27T10:50:32;100721.70;;;22.21;34.59
69221;BME280;56331;51.992;20.910;2023-01-27T10:53:02;100721.97;;;22.22;34.76
69221;BME280;56331;51.992;20.910;2023-01-27T10:58:23;100720.71;;;22.25;34.75
69221;BME280;56331;51.992;20.910;2023-01-27T11:00:49;100729.30;;;22.26;34.81
69221;BME280;56331;51.992;20.910;2023-01-27T11:05:55;100728.45;;;22.26;34.96
69221;BME280;56331;51.992;20.910;2023-01-27T11:08:25;100726.17;;;22.28;35.02
69221;BME280;56331;51.992;20.910;2023-01-27T11:10:58;100724.45;;;22.30;35.09
69221;BME280;56331;51.992;20.910;2023-01-27T11:13:40;100723.06;;;22.30;35.12
69221;BME280;56331;51.992;20.910;2023-01-27T11:16:15;100721.10;;;22.30;35.19
69221;BME280;56331;51.992;20.910;2023-01-27T11:18:43;100720.20;;;22.32;35.27
69221;BME280;56331;51.992;20.910;2023-01-27T11:21:18;100715.23;;;22.32;35.20
69221;BME280;56331;51.992;20.910;2023-01-27T11:23:48;100715.78;;;22.31;35.11
69221;BME280;56331;51.992;20.910;2023-01-27T11:31:55;100712.09;;;22.33;34.56
69221;BME280;56331;51.992;20.910;2023-01-27T11:34:26;100705.52;;;22.32;34.35
69221;BME280;56331;51.992;20.910;2023-01-27T11:36:53;100703.64;;;22.30;34.37
69221;BME280;56331;51.992;20.910;2023-01-27T11:39:19;100702.83;;;22.29;34.29
69221;BME280;56331;51.992;20.910;2023-01-27T11:41:49;100693.12;;;22.29;34.21
69221;BME280;56331;51.992;20.910;2023-01-27T11:44:23;100686.73;;;22.28;34.10
69221;BME280;56331;51.992;20.910;2023-01-27T11:46:47;100690.89;;;22.28;34.03
69221;BME280;56331;51.992;20.910;2023-01-27T11:49:20;100687.89;;;22.27;33.94
69221;BME280;56331;51.992;20.910;2023-01-27T11:51:48;100693.34;;;22.30;33.97
69221;BME280;56331;51.992;20.910;2023-01-27T11:54:20;100692.55;;;22.30;33.94
69221;BME280;56331;51.992;20.910;2023-01-27T11:56:49;100686.73;;;22.28;34.10
69221;BME280;56331;51.992;20.910;2023-01-27T11:59:24;100688.60;;;22.31;34.22
69221;BME280;56331;51.992;20.910;2023-01-27T12:07:37;100690.67;;;22.27;34.33
69221;BME280;56331;51.992;20.910;2023-01-27T12:12:49;100685.12;;;22.27;33.52
69221;BME280;56331;51.992;20.910;2023-01-27T12:15:17;100685.70;;;22.27;33.05
69221;BME280;56331;51.992;20.910;2023-01-27T12:17:53;100692.64;;;22.27;33.01
69221;BME280;56331;51.992;20.910;2023-01-27T12:20:38;100692.64;;;22.27;32.97
69221;BME280;56331;51.992;20.910;2023-01-27T12:23:17;100692.64;;;22.27;32.57
69221;BME280;56331;51.992;20.910;2023-01-27T12:25:48;100688.80;;;22.25;32.48
69221;BME280;56331;51.992;20.910;2023-01-27T12:28:24;100694.02;;;22.27;32.33
69221;BME280;56331;51.992;20.910;2023-01-27T12:30:53;100693.22;;;22.26;32.29
69221;BME280;56331;51.992;20.910;2023-01-27T12:33:28;100691.25;;;22.27;32.29
69221;BME280;56331;51.992;20.910;2023-01-27T12:35:58;100692.86;;;22.28;32.30
69221;BME280;56331;51.992;20.910;2023-01-27T12:38:31;100694.51;;;22.29;32.53
69221;BME280;56331;51.992;20.910;2023-01-27T12:41:03;100700.28;;;22.30;32.67
69221;BME280;56331;51.992;20.910;2023-01-27T12:43:29;100706.64;;;22.31;32.89
69221;BME280;56331;51.992;20.910;2023-01-27T12:48:44;100698.58;;;22.32;33.14
69221;BME280;56331;51.992;20.910;2023-01-27T12:51:13;100694.73;;;22.30;33.27
69221;BME280;56331;51.992;20.910;2023-01-27T12:53:42;100686.64;;;22.31;33.64
69221;BME280;56331;51.992;20.910;2023-01-27T12:56:15;100700.28;;;22.30;33.79
69221;BME280;56331;51.992;20.910;2023-01-27T12:58:44;100699.97;;;22.32;33.86
69221;BME280;56331;51.992;20.910;2023-01-27T13:01:29;100694.41;;;22.32;33.93
69221;BME280;56331;51.992;20.910;2023-01-27T13:04:16;100693.02;;;22.32;34.06
69221;BME280;56331;51.992;20.910;2023-01-27T13:12:21;100687.70;;;22.33;34.25
69221;BME280;56331;51.992;20.910;2023-01-27T13:14:50;100683.31;;;22.32;34.21
69221;BME280;56331;51.992;20.910;2023-01-27T13:17:29;100685.25;;;22.31;34.17
69221;BME280;56331;51.992;20.910;2023-01-27T13:20:00;100677.50;;;22.31;34.04
69221;BME280;56331;51.992;20.910;2023-01-27T13:22:28;100688.37;;;22.30;33.93
69221;BME280;56331;51.992;20.910;2023-01-27T13:24:59;100693.12;;;22.29;33.90
69221;BME280;56331;51.992;20.910;2023-01-27T13:27:28;100691.96;;;22.30;33.77
69221;BME280;56331;51.992;20.910;2023-01-27T13:30:36;100691.96;;;22.30;33.74
69221;BME280;56331;51.992;20.910;2023-01-27T13:32:36;100698.90;;;22.30;33.64
69221;BME280;56331;51.992;20.910;2023-01-27T13:35:24;100698.67;;;22.29;33.59
69221;BME280;56331;51.992;20.910;2023-01-27T13:38:14;100708.94;;;22.28;33.57
69221;BME280;56331;51.992;20.910;2023-01-27T13:40:44;100703.96;;;22.28;33.53
69221;BME280;56331;51.992;20.910;2023-01-27T13:43:20;100711.48;;;22.27;33.46
69221;BME280;56331;51.992;20.910;2023-01-27T13:46:01;100710.91;;;22.28;33.40
69221;BME280;56331;51.992;20.910;2023-01-27T13:48:43;100717.26;;;22.28;33.34
69221;BME280;56331;51.992;20.910;2023-01-27T13:51:15;100715.64;;;22.27;33.28
69221;BME280;56331;51.992;20.910;2023-01-27T13:53:43;100726.75;;;22.27;33.23
69221;BME280;56331;51.992;20.910;2023-01-27T13:59:17;100728.14;;;22.27;33.16
69221;BME280;56331;51.992;20.910;2023-01-27T14:07:33;100729.30;;;22.26;33.99
69221;BME280;56331;51.992;20.910;2023-01-27T14:10:14;100735.87;;;22.28;34.17
69221;BME280;56331;51.992;20.910;2023-01-27T14:15:58;100729.75;;;22.28;34.52
69221;BME280;56331;51.992;20.910;2023-01-27T14:18:48;100724.45;;;22.30;34.55
69221;BME280;56331;51.992;20.910;2023-01-27T14:24:20;100727.95;;;22.33;34.74
69221;BME280;56331;51.992;20.910;2023-01-27T14:26:52;100730.37;;;22.34;34.67
69221;BME280;56331;51.992;20.910;2023-01-27T14:29:26;100731.44;;;22.36;34.63
69221;BME280;56331;51.992;20.910;2023-01-27T14:40:21;100738.59;;;22.37;33.71